Time;durP1;ratioP1;P1;durP2;ratioP2;P2;SDS_P1;SDS_P2;PMS_P1;PMS_P2;Temp;Humidity;BMP_temperature;BMP_pressure;BME280_temperature;BME280_humidity;BME280_pressure;Samples;Min_cycle;Max_cycle;Signal;HPM_P1;HPM_P2
2022/02/28 00:01:57;;;;;;;76.22;35.58;;;;;;;-1.73;78.06;102077.82;2150584;81;21550;-77
2022/02/28 00:04:58;;;;;;;80.83;37.42;;;;;;;-1.79;77.92;102074.93;2143309;81;22293;-77
2022/02/28 00:08:00;;;;;;;79.72;36.68;;;;;;;-1.84;78.02;102080.24;2179749;80;21013;-77
2022/02/28 00:11:02;;;;;;;71.82;35.45;;;;;;;-1.93;78.03;102077.03;2178655;80;21092;-77
2022/02/28 00:14:03;;;;;;;72.37;36.48;;;;;;;-2.04;78.07;102082.50;2178637;80;21040;-78
2022/02/28 00:17:05;;;;;;;71.20;34.67;;;;;;;-2.05;78.33;102080.80;2137813;81;21005;-78
2022/02/28 00:20:10;;;;;;;71.30;34.67;;;;;;;-2.01;78.38;102079.82;2190424;80;21037;-80
2022/02/28 00:23:12;;;;;;;70.70;32.65;;;;;;;-2.11;78.19;102073.13;2191265;80;21045;-77
2022/02/28 00:26:14;;;;;;;68.90;33.08;;;;;;;-2.14;78.36;102072.78;2190907;80;21548;-78
2022/02/28 00:29:16;;;;;;;72.60;34.33;;;;;;;-2.17;78.26;102072.83;2194301;80;21088;-80
2022/02/28 00:32:17;;;;;;;71.25;32.88;;;;;;;-2.16;78.21;102075.02;2193730;80;21041;-78
2022/02/28 00:35:19;;;;;;;70.47;33.88;;;;;;;-2.15;78.16;102067.61;2192647;80;21056;-77
2022/02/28 00:38:20;;;;;;;73.30;33.38;;;;;;;-2.19;77.99;102075.09;2192798;80;21010;-79
2022/02/28 00:41:22;;;;;;;68.62;32.55;;;;;;;-2.27;77.78;102070.06;2191559;80;21025;-78
2022/02/28 00:44:24;;;;;;;72.58;35.08;;;;;;;-2.38;77.79;102061.21;2192111;80;21053;-77
2022/02/28 00:47:25;;;;;;;74.87;34.75;;;;;;;-2.38;77.99;102054.71;2146817;81;21037;-80
2022/02/28 00:50:27;;;;;;;68.62;31.90;;;;;;;-2.32;78.03;102053.71;2144841;81;21351;-78
2022/02/28 00:53:29;;;;;;;67.85;32.78;;;;;;;-2.34;77.89;102055.03;2180947;80;21010;-80
2022/02/28 00:56:32;;;;;;;68.10;32.78;;;;;;;-2.31;77.76;102048.48;2143870;81;21053;-78
2022/02/28 00:59:33;;;;;;;64.65;31.27;;;;;;;-2.30;77.83;102046.28;2192752;79;21045;-80
2022/02/28 01:02:35;;;;;;;68.25;32.30;;;;;;;-2.28;77.85;102044.51;2196693;80;21547;-77
2022/02/28 01:05:36;;;;;;;61.50;31.52;;;;;;;-2.27;77.86;102043.61;2193081;80;21032;-78
2022/02/28 01:08:39;;;;;;;72.22;34.40;;;;;;;-2.27;77.67;102039.70;2199074;80;21028;-77
2022/02/28 01:11:40;;;;;;;67.45;31.68;;;;;;;-2.34;77.50;102035.53;2163626;81;21040;-78
2022/02/28 01:14:42;;;;;;;68.87;30.97;;;;;;;-2.39;77.46;102033.94;2198557;79;22491;-77
2022/02/28 01:17:44;;;;;;;66.00;31.48;;;;;;;-2.40;77.51;102042.19;2215103;79;21079;-76
2022/02/28 01:20:46;;;;;;;61.97;29.97;;;;;;;-2.50;77.53;102036.81;2212966;79;21048;-77
2022/02/28 01:23:47;;;;;;;69.42;30.90;;;;;;;-2.54;77.57;102042.96;2214676;79;21016;-76
2022/02/28 01:26:51;;;;;;;65.55;29.85;;;;;;;-2.55;77.52;102042.56;2215021;79;21504;-76
2022/02/28 01:29:53;;;;;;;60.43;28.67;;;;;;;-2.56;77.47;102033.03;2185889;79;21043;-76
2022/02/28 01:32:54;;;;;;;56.53;26.68;;;;;;;-2.55;77.45;102037.36;2215220;79;22313;-79
2022/02/28 01:35:56;;;;;;;60.65;28.70;;;;;;;-2.59;77.38;102038.31;2214167;79;21065;-76
2022/02/28 01:39:00;;;;;;;68.25;28.95;;;;;;;-2.63;77.40;102036.23;2175101;81;21032;-76
2022/02/28 01:42:01;;;;;;;60.63;27.67;;;;;;;-2.67;77.38;102035.06;2188406;79;21056;-76
2022/02/28 01:45:04;;;;;;;57.75;28.70;;;;;;;-2.76;77.40;102029.59;2185333;79;21091;-78
2022/02/28 01:48:06;;;;;;;60.08;28.57;;;;;;;-2.80;77.40;102030.57;2213403;79;21080;-76
2022/02/28 01:51:08;;;;;;;60.75;29.35;;;;;;;-2.79;77.32;102029.25;2212606;79;21060;-76
2022/02/28 01:54:10;;;;;;;60.90;27.37;;;;;;;-2.76;77.23;102032.20;2162911;81;21581;-76
2022/02/28 01:57:12;;;;;;;55.83;26.73;;;;;;;-2.83;77.12;102022.40;2191339;79;21079;-77
2022/02/28 02:00:18;;;;;;;62.17;28.20;;;;;;;-2.86;77.21;102019.02;2193844;79;21048;-76
2022/02/28 02:03:20;;;;;;;61.18;27.98;;;;;;;-2.85;77.33;102019.42;2191744;79;21087;-76
2022/02/28 02:06:22;;;;;;;60.60;27.02;;;;;;;-2.88;77.38;102021.64;2216760;79;21012;-76
2022/02/28 02:09:25;;;;;;;60.03;27.30;;;;;;;-2.87;77.37;102021.19;2216658;79;21668;-76
2022/02/28 02:12:28;;;;;;;55.67;26.85;;;;;;;-2.89;77.39;102019.95;2215537;79;21009;-77
2022/02/28 02:15:30;;;;;;;55.40;26.90;;;;;;;-2.90;77.41;102031.66;2181683;79;21098;-76
2022/02/28 02:18:32;;;;;;;53.83;26.10;;;;;;;-2.91;77.27;102019.11;2133933;81;21050;-76
2022/02/28 02:21:34;;;;;;;54.98;26.97;;;;;;;-2.92;77.07;102030.86;2194550;80;21080;-76
2022/02/28 02:24:35;;;;;;;55.48;25.35;;;;;;;-3.04;76.95;102022.86;2170034;80;20979;-77
2022/02/28 02:27:37;;;;;;;60.08;26.27;;;;;;;-3.07;77.06;102021.62;2128621;81;21052;-76
2022/02/28 02:30:38;;;;;;;58.55;27.42;;;;;;;-3.10;77.14;102014.75;2139562;81;21148;-76
2022/02/28 02:33:44;;;;;;;60.45;26.90;;;;;;;-3.10;77.22;102012.61;2130784;81;21062;-79
2022/02/28 02:36:47;;;;;;;53.42;25.25;;;;;;;-3.06;77.26;102012.97;2141586;81;21047;-76
2022/02/28 02:39:49;;;;;;;55.63;25.82;;;;;;;-3.04;77.21;102006.86;2133023;81;21388;-76
2022/02/28 02:42:50;;;;;;;58.95;25.05;;;;;;;-3.11;77.02;102009.61;2143129;81;21077;-77
2022/02/28 02:45:52;;;;;;;55.23;24.15;;;;;;;-3.26;76.92;102007.76;2136604;81;21534;-79
2022/02/28 02:48:54;;;;;;;54.83;23.50;;;;;;;-3.38;77.07;102000.20;2172896;80;21045;-76
2022/02/28 02:51:57;;;;;;;54.25;23.70;;;;;;;-3.44;77.25;102003.78;2171535;80;21076;-76
2022/02/28 02:54:59;;;;;;;50.08;22.62;;;;;;;-3.40;77.24;101999.41;2166360;80;21669;-76
2022/02/28 02:58:02;;;;;;;54.60;23.45;;;;;;;-3.40;77.19;101999.41;2172167;80;21044;-78
2022/02/28 03:01:04;;;;;;;51.65;22.37;;;;;;;-3.43;77.26;102008.11;2138809;81;21650;-76
2022/02/28 03:04:06;;;;;;;57.17;23.05;;;;;;;-3.45;77.26;102009.02;2137166;81;21087;-76
2022/02/28 03:07:19;;;;;;;50.03;24.57;;;;;;;-3.46;77.41;102017.70;2186930;80;21707;-76
2022/02/28 03:10:22;;;;;;;47.25;23.92;;;;;;;-3.48;77.48;102009.08;2186263;80;21123;-77
2022/02/28 03:13:24;;;;;;;47.93;23.02;;;;;;;-3.45;77.58;102014.20;2187053;80;21149;-78
2022/02/28 03:16:27;;;;;;;46.20;22.15;;;;;;;-3.45;77.41;102010.31;2200805;80;20971;-77
2022/02/28 03:19:29;;;;;;;47.88;22.20;;;;;;;-3.42;77.35;102010.25;2205992;80;21551;-77
2022/02/28 03:22:31;;;;;;;51.13;21.70;;;;;;;-3.39;77.22;102015.38;2205047;80;21009;-78
2022/02/28 03:25:33;;;;;;;48.65;22.60;;;;;;;-3.32;77.28;102009.60;2205365;80;20998;-77
2022/02/28 03:28:36;;;;;;;53.28;24.10;;;;;;;-3.33;77.23;102010.50;2206592;80;21041;-77
2022/02/28 03:31:38;;;;;;;49.95;22.55;;;;;;;-3.34;76.99;102016.14;2203319;80;21384;-77
2022/02/28 03:34:39;;;;;;;49.65;23.02;;;;;;;-3.35;76.95;102013.56;2205654;80;21116;-77
2022/02/28 03:37:41;;;;;;;49.38;23.12;;;;;;;-3.38;76.83;102009.29;2204974;80;21214;-77
2022/02/28 03:40:44;;;;;;;48.10;22.65;;;;;;;-3.43;76.89;102010.70;2208851;80;21087;-77
2022/02/28 03:43:46;;;;;;;51.25;24.87;;;;;;;-3.43;76.92;102018.48;2205700;80;21578;-79
2022/02/28 03:46:51;;;;;;;54.30;24.07;;;;;;;-3.38;77.05;102023.56;2204596;80;21162;-77
2022/02/28 03:50:11;;;;;;;60.98;26.45;;;;;;;-3.42;76.90;102023.23;2204063;80;21160;-77
2022/02/28 03:53:14;;;;;;;53.63;24.27;;;;;;;-3.49;76.86;102028.12;2206067;80;21678;-77
2022/02/28 03:56:17;;;;;;;55.83;23.75;;;;;;;-3.57;76.93;102023.55;2205848;80;21108;-76
2022/02/28 03:59:19;;;;;;;62.03;25.17;;;;;;;-3.62;76.90;102021.03;2206853;80;21032;-77
2022/02/28 04:02:21;;;;;;;50.48;24.27;;;;;;;-3.72;77.00;102021.62;2204832;80;21088;-77
2022/02/28 04:05:23;;;;;;;56.13;24.55;;;;;;;-3.69;77.08;102025.91;2207019;80;21022;-77
2022/02/28 04:08:26;;;;;;;58.00;25.32;;;;;;;-3.68;77.02;102025.05;2184948;79;21033;-77
2022/02/28 04:11:30;;;;;;;56.90;24.87;;;;;;;-3.74;76.97;102010.90;2208386;79;21076;-77
2022/02/28 04:14:33;;;;;;;62.27;25.72;;;;;;;-3.76;76.97;102013.51;2156480;81;21047;-78
2022/02/28 04:17:36;;;;;;;59.25;28.05;;;;;;;-3.81;77.08;102011.44;2156452;81;21616;-77
2022/02/28 04:20:42;;;;;;;58.42;26.20;;;;;;;-3.83;77.14;102011.89;2181659;79;21112;-77
2022/02/28 04:23:44;;;;;;;70.87;27.10;;;;;;;-3.90;77.27;102011.61;2182457;79;21016;-77
2022/02/28 04:26:46;;;;;;;63.98;27.05;;;;;;;-3.94;77.40;102012.12;2191378;80;21081;-77
2022/02/28 04:29:47;;;;;;;67.67;28.30;;;;;;;-3.99;77.44;102011.34;2163200;80;21009;-77
2022/02/28 04:32:50;;;;;;;70.45;28.85;;;;;;;-4.04;77.56;102004.08;2184501;79;21595;-77
2022/02/28 04:35:53;;;;;;;70.65;28.50;;;;;;;-4.02;77.50;102015.29;2204297;79;21039;-78
2022/02/28 04:38:57;;;;;;;70.10;28.25;;;;;;;-4.00;77.57;102011.35;2157581;81;21073;-77
2022/02/28 04:41:59;;;;;;;65.40;28.42;;;;;;;-3.97;77.52;102008.29;2142786;81;21047;-79
2022/02/28 04:45:01;;;;;;;61.92;27.77;;;;;;;-3.93;77.46;102009.92;2185804;79;21013;-76
2022/02/28 04:48:03;;;;;;;62.45;26.77;;;;;;;-3.92;77.35;102017.26;2186365;79;21019;-77
2022/02/28 04:51:24;;;;;;;65.37;27.40;;;;;;;-3.93;77.29;102012.97;2185487;79;21017;-77
2022/02/28 04:54:26;;;;;;;59.05;27.87;;;;;;;-3.92;77.31;102019.86;2196218;80;21511;-78
2022/02/28 04:57:29;;;;;;;59.73;27.22;;;;;;;-3.91;77.29;102021.14;2180719;79;21104;-76
2022/02/28 05:00:31;;;;;;;61.37;25.60;;;;;;;-3.89;77.27;102023.69;2144026;81;21116;-74
2022/02/28 05:03:33;;;;;;;64.07;26.97;;;;;;;-3.92;77.22;102024.59;2199025;80;21028;-76
2022/02/28 05:06:35;;;;;;;58.60;26.82;;;;;;;-3.97;77.12;102022.97;2198731;80;21118;-77
2022/02/28 05:09:36;;;;;;;62.00;25.55;;;;;;;-4.00;77.14;102019.98;2202644;80;21043;-76
2022/02/28 05:12:39;;;;;;;55.70;26.17;;;;;;;-3.97;77.16;102016.48;2199082;80;21080;-77
2022/02/28 05:15:41;;;;;;;58.13;27.87;;;;;;;-3.96;77.09;102019.51;2205862;79;21053;-76
2022/02/28 05:18:44;;;;;;;65.83;27.70;;;;;;;-3.93;77.12;102023.34;2212291;79;21028;-77
2022/02/28 05:21:45;;;;;;;56.28;24.23;;;;;;;-3.92;77.22;102028.93;2214393;79;21579;-76
2022/02/28 05:24:47;;;;;;;54.20;25.90;;;;;;;-3.91;77.34;102023.73;2211931;79;21766;-75
2022/02/28 05:27:48;;;;;;;58.65;25.12;;;;;;;-3.90;77.14;102024.58;2188926;79;20984;-78
2022/02/28 05:30:51;;;;;;;54.95;24.02;;;;;;;-3.86;77.19;102022.33;2184688;79;21534;-80
2022/02/28 05:33:53;;;;;;;51.58;24.30;;;;;;;-3.88;77.04;102029.31;2180249;79;21425;-79
2022/02/28 05:36:55;;;;;;;54.08;24.05;;;;;;;-3.93;76.99;102027.23;2187477;79;21065;-82
2022/02/28 05:40:03;;;;;;;62.38;25.52;;;;;;;-3.92;76.98;102028.48;2172487;79;21017;-83
2022/02/28 05:43:06;;;;;;;58.73;27.82;;;;;;;-3.92;76.98;102027.64;2214829;79;21060;-82
2022/02/28 05:46:10;;;;;;;59.53;25.75;;;;;;;-3.94;76.95;102035.46;2175402;80;21072;-83
2022/02/28 05:49:19;;;;;;;59.00;25.17;;;;;;;-3.94;76.84;102031.57;2166880;79;21128;-78
2022/02/28 05:52:20;;;;;;;55.85;25.37;;;;;;;-3.96;76.82;102042.41;2186812;79;21072;-76
2022/02/28 05:55:22;;;;;;;56.33;25.65;;;;;;;-3.93;77.12;102043.64;2186477;79;21522;-79
2022/02/28 05:58:24;;;;;;;54.23;24.70;;;;;;;-3.74;77.02;102049.37;2190272;79;21056;-84
2022/02/28 06:01:25;;;;;;;60.03;25.02;;;;;;;-3.53;77.31;102039.45;2215551;79;21084;-80
2022/02/28 06:04:27;;;;;;;50.15;22.90;;;;;;;-3.15;77.50;102042.59;2214869;79;21025;-80
2022/02/28 06:07:29;;;;;;;53.13;25.00;;;;;;;-2.80;77.33;102050.06;2215676;79;21072;-80
2022/02/28 06:10:30;;;;;;;55.70;25.95;;;;;;;-2.38;77.36;102048.21;2187345;79;21530;-82
2022/02/28 06:13:32;;;;;;;47.88;23.75;;;;;;;-1.88;77.44;102043.50;2217835;79;21000;-80
2022/02/28 06:16:34;;;;;;;56.00;23.73;;;;;;;-1.50;76.68;102039.45;2179689;79;21056;-82
2022/02/28 06:19:35;;;;;;;55.23;24.65;;;;;;;-1.26;76.30;102044.43;2172943;81;21103;-82
2022/02/28 06:22:37;;;;;;;45.88;22.90;;;;;;;-0.80;76.56;102043.06;2169976;79;21041;-79
2022/02/28 06:25:39;;;;;;;52.43;24.12;;;;;;;-0.37;75.94;102045.16;2164560;80;21076;-80
2022/02/28 06:28:41;;;;;;;47.00;24.05;;;;;;;0.05;76.01;102047.26;2140431;82;22382;-79
2022/02/28 06:31:45;;;;;;;48.30;22.77;;;;;;;0.49;75.35;102046.64;2192226;80;21063;-81
2022/02/28 06:34:47;;;;;;;50.98;23.47;;;;;;;0.74;74.48;102054.44;2195223;80;21053;-81
2022/02/28 06:37:51;;;;;;;46.60;22.75;;;;;;;0.87;73.93;102050.02;2126975;81;21052;-79
2022/02/28 06:40:53;;;;;;;46.53;21.95;;;;;;;1.00;73.32;102054.77;2154594;81;21623;-77
2022/02/28 06:43:55;;;;;;;38.73;20.43;;;;;;;0.86;72.50;102048.29;2173506;81;21044;-78
2022/02/28 06:46:57;;;;;;;42.58;21.42;;;;;;;0.72;71.48;102061.02;2177466;81;21542;-78
2022/02/28 06:49:59;;;;;;;42.85;20.30;;;;;;;0.72;72.60;102062.78;2158272;81;20971;-78
2022/02/28 06:53:01;;;;;;;40.38;20.17;;;;;;;0.71;70.74;102055.86;2154791;81;21021;-78
2022/02/28 06:56:03;;;;;;;43.68;20.40;;;;;;;0.59;71.54;102060.63;2158003;81;21041;-77
2022/02/28 06:59:05;;;;;;;46.53;20.05;;;;;;;0.70;70.99;102068.05;2152169;81;22254;-79
2022/02/28 07:02:08;;;;;;;44.45;19.40;;;;;;;0.49;70.10;102068.84;2156903;81;21022;-78
2022/02/28 07:05:23;;;;;;;44.10;20.75;;;;;;;0.44;71.63;102071.14;2159029;81;21574;-78
2022/02/28 07:08:26;;;;;;;44.77;20.65;;;;;;;0.88;72.78;102075.69;2135267;82;20998;-77
2022/02/28 07:11:27;;;;;;;38.63;18.80;;;;;;;1.14;70.68;102076.02;2135581;82;21057;-77
2022/02/28 07:14:29;;;;;;;39.10;19.42;;;;;;;1.26;70.61;102084.69;2134452;81;20989;-77
2022/02/28 07:17:32;;;;;;;37.53;17.87;;;;;;;1.25;70.64;102089.53;2165832;79;21077;-78
2022/02/28 07:20:34;;;;;;;36.17;17.62;;;;;;;1.18;68.91;102084.13;2180938;79;21087;-79
2022/02/28 07:23:35;;;;;;;36.80;16.87;;;;;;;1.29;70.86;102088.95;2173941;79;21077;-81
2022/02/28 07:26:37;;;;;;;33.02;16.52;;;;;;;1.41;69.68;102085.00;2180219;79;21036;-78
2022/02/28 07:29:39;;;;;;;31.95;16.42;;;;;;;1.60;68.99;102094.30;2183975;79;21535;-79
2022/02/28 07:32:40;;;;;;;34.27;17.02;;;;;;;1.64;69.71;102085.44;2180291;79;21093;-80
2022/02/28 07:35:42;;;;;;;35.50;17.17;;;;;;;1.64;68.09;102091.52;2214946;79;20985;-80
2022/02/28 07:38:46;;;;;;;35.10;17.12;;;;;;;1.68;68.84;102093.55;2219707;79;21060;-81
2022/02/28 07:41:47;;;;;;;31.07;15.05;;;;;;;1.76;69.39;102095.40;2213135;79;21514;-80
2022/02/28 07:44:49;;;;;;;33.15;15.45;;;;;;;1.97;68.98;102102.39;2218627;79;21040;-80
2022/02/28 07:47:51;;;;;;;33.95;16.62;;;;;;;2.21;68.44;102098.34;2181559;79;21051;-78
2022/02/28 07:50:53;;;;;;;32.88;16.00;;;;;;;2.05;66.79;102099.44;2181275;79;21037;-78
2022/02/28 07:53:54;;;;;;;26.77;13.55;;;;;;;2.07;67.43;102105.94;2209156;80;21109;-78
2022/02/28 07:56:56;;;;;;;32.65;16.27;;;;;;;2.00;66.29;102113.20;2204985;80;21072;-78
2022/02/28 07:59:58;;;;;;;30.77;15.75;;;;;;;1.88;66.56;102114.52;2209680;80;21512;-78
2022/02/28 08:03:00;;;;;;;31.20;16.32;;;;;;;2.04;67.69;102121.77;2212709;80;21005;-78
2022/02/28 08:06:01;;;;;;;35.85;15.70;;;;;;;2.22;66.72;102111.83;2207560;80;21041;-77
2022/02/28 08:09:03;;;;;;;31.07;15.88;;;;;;;2.36;65.84;102113.88;2207127;80;21021;-77
2022/02/28 08:12:05;;;;;;;30.80;15.63;;;;;;;2.37;66.07;102112.97;2200652;80;21040;-78
2022/02/28 08:15:07;;;;;;;30.75;16.93;;;;;;;2.63;66.52;102107.91;2208153;80;20998;-77
2022/02/28 08:18:09;;;;;;;30.05;15.80;;;;;;;2.94;67.03;102107.41;2187132;79;21528;-79
2022/02/28 08:21:11;;;;;;;30.37;17.02;;;;;;;3.00;65.25;102116.30;2185167;79;21055;-79
2022/02/28 08:24:13;;;;;;;31.27;16.45;;;;;;;2.92;64.34;102117.09;2187917;79;21068;-78
2022/02/28 08:27:15;;;;;;;30.97;15.80;;;;;;;2.95;63.33;102121.36;2184585;79;21072;-77
2022/02/28 08:30:16;;;;;;;29.32;16.02;;;;;;;2.88;64.48;102116.86;2185773;79;22233;-77
2022/02/28 08:33:18;;;;;;;28.23;15.75;;;;;;;2.91;63.98;102125.90;2182085;79;21091;-77
2022/02/28 08:36:20;;;;;;;29.95;15.25;;;;;;;2.63;64.21;102125.80;2183343;79;21016;-77
2022/02/28 08:39:22;;;;;;;26.77;13.95;;;;;;;2.85;65.41;102122.24;2185693;79;21044;-81
2022/02/28 08:42:25;;;;;;;28.67;15.32;;;;;;;3.12;64.74;102117.52;2205533;79;21025;-77
2022/02/28 08:45:27;;;;;;;28.02;13.70;;;;;;;3.29;64.35;102121.98;2183504;79;20998;-77
2022/02/28 08:48:29;;;;;;;33.23;16.82;;;;;;;3.31;61.83;102125.39;2203633;80;21468;-80
2022/02/28 08:51:30;;;;;;;30.00;14.70;;;;;;;3.24;64.07;102128.77;2201876;80;20993;-77
2022/02/28 08:54:32;;;;;;;33.45;15.85;;;;;;;3.45;61.35;102120.83;2140038;82;21053;-77
2022/02/28 08:57:34;;;;;;;29.70;14.75;;;;;;;3.24;61.87;102135.77;2159913;81;21028;-79
2022/02/28 09:00:36;;;;;;;27.90;15.18;;;;;;;3.34;62.40;102135.75;2190513;79;21545;-80
2022/02/28 09:03:37;;;;;;;27.70;14.47;;;;;;;3.28;61.33;102134.26;2183815;79;21566;-83
2022/02/28 09:06:42;;;;;;;32.45;15.30;;;;;;;3.29;62.03;102141.66;2188163;80;21020;-79
2022/02/28 09:09:42;;;;;;;32.28;15.25;;;;;;;3.31;60.99;102141.98;2186400;79;22125;-85
2022/02/28 09:12:44;;;;;;;29.60;14.18;;;;;;;3.46;60.67;102136.48;2186153;79;21021;-80
2022/02/28 09:15:50;;;;;;;29.48;14.47;;;;;;;3.50;61.45;102137.21;2188370;79;21060;-80
2022/02/28 09:18:51;;;;;;;28.42;15.50;;;;;;;3.72;62.21;102133.12;2144259;79;21017;-79
2022/02/28 09:21:53;;;;;;;30.43;14.93;;;;;;;4.05;61.61;102139.80;2150867;81;21104;-80
2022/02/28 09:24:55;;;;;;;31.20;16.42;;;;;;;4.13;60.75;102135.49;2153070;81;21017;-80
2022/02/28 09:27:59;;;;;;;24.07;12.13;;;;;;;4.27;60.66;102131.71;2149417;81;22355;-80
2022/02/28 09:31:01;;;;;;;23.98;12.23;;;;;;;4.42;60.53;102136.21;2163738;81;21041;-78
2022/02/28 09:34:03;;;;;;;20.20;11.53;;;;;;;4.35;59.45;102141.38;2175388;81;21010;-80
2022/02/28 09:37:04;;;;;;;23.38;11.88;;;;;;;4.37;58.96;102134.27;2166218;81;21076;-79
2022/02/28 09:40:08;;;;;;;22.90;12.47;;;;;;;4.33;59.18;102135.34;2147564;81;21054;-80
2022/02/28 09:43:15;;;;;;;21.52;11.08;;;;;;;4.40;59.00;102132.80;2150649;81;21029;-81
2022/02/28 09:46:35;;;;;;;24.57;11.22;;;;;;;4.40;58.29;102134.59;2147261;81;21138;-78
2022/02/28 09:49:55;;;;;;;15.72;7.60;;;;;;;4.41;58.74;102133.64;2148881;81;21195;-79
2022/02/28 09:53:16;;;;;;;15.75;9.20;;;;;;;4.37;55.81;102137.38;2152418;81;21092;-79
2022/02/28 09:56:38;;;;;;;16.75;8.70;;;;;;;4.11;56.20;102137.33;2129804;82;21113;-80
2022/02/28 09:59:58;;;;;;;13.65;8.48;;;;;;;3.95;56.37;102136.78;2146432;81;21577;-79
2022/02/28 10:03:02;;;;;;;17.80;8.20;;;;;;;3.99;55.64;102126.97;2171492;81;22249;-79
2022/02/28 10:06:04;;;;;;;15.25;7.55;;;;;;;4.10;55.17;102128.61;2152012;81;21017;-82
2022/02/28 10:09:08;;;;;;;12.90;6.50;;;;;;;4.00;53.73;102132.16;2123765;82;21452;-79
2022/02/28 10:12:10;;;;;;;14.98;7.58;;;;;;;3.89;54.46;102136.25;2169864;81;22215;-78
2022/02/28 10:15:16;;;;;;;12.05;6.60;;;;;;;3.89;54.44;102138.87;2170135;81;20985;-81
2022/02/28 10:18:18;;;;;;;9.23;5.65;;;;;;;3.97;53.43;102140.64;2140819;80;21089;-79
2022/02/28 10:21:44;;;;;;;13.80;6.92;;;;;;;3.86;52.67;102142.93;2167350;81;21572;-79
2022/02/28 10:24:48;;;;;;;13.08;6.90;;;;;;;3.79;52.72;102143.70;2170628;81;21033;-79
2022/02/28 10:28:26;;;;;;;14.13;7.53;;;;;;;3.76;53.68;102145.16;2154018;81;21085;-79
2022/02/28 10:31:38;;;;;;;16.25;7.35;;;;;;;3.95;53.37;102145.98;2168432;81;21599;-80
2022/02/28 10:38:23;;;;;;;14.53;7.50;;;;;;;4.08;50.58;102148.00;2146298;82;21058;-80
2022/02/28 10:41:30;;;;;;;11.43;5.97;;;;;;;3.81;49.24;102151.05;2169951;81;21010;-78
2022/02/28 10:44:31;;;;;;;12.10;7.00;;;;;;;3.47;48.31;102151.80;2138290;82;21117;-77
2022/02/28 10:47:47;;;;;;;9.95;6.15;;;;;;;3.25;48.55;102145.36;2141326;82;21044;-81
2022/02/28 10:50:50;;;;;;;13.40;7.45;;;;;;;3.28;49.28;102152.63;2140381;82;21013;-79
2022/02/28 10:54:23;;;;;;;13.30;7.10;;;;;;;3.18;47.92;102145.23;2147721;82;22307;-78
2022/02/28 10:57:25;;;;;;;13.32;6.85;;;;;;;3.12;49.76;102155.08;2150205;82;20989;-77
2022/02/28 11:00:26;;;;;;;8.65;5.55;;;;;;;3.02;49.10;102147.72;2150894;81;21054;-78
2022/02/28 11:03:50;;;;;;;9.68;5.42;;;;;;;2.99;49.07;102153.11;2172715;81;20998;-79
2022/02/28 11:06:51;;;;;;;11.25;5.72;;;;;;;3.20;48.64;102136.84;2141808;82;21647;-81
2022/02/28 11:09:57;;;;;;;7.50;4.20;;;;;;;3.11;47.47;102145.52;2144400;82;22164;-78
2022/02/28 11:12:59;;;;;;;9.10;5.47;;;;;;;3.03;47.59;102151.56;2121981;82;21064;-79
2022/02/28 11:16:01;;;;;;;6.03;3.33;;;;;;;3.00;45.32;102150.39;2148392;82;21105;-78
2022/02/28 11:19:04;;;;;;;6.78;4.35;;;;;;;2.82;43.82;102155.16;2158853;80;21009;-78
2022/02/28 11:22:06;;;;;;;11.18;5.90;;;;;;;2.81;43.83;102146.88;2163971;81;22144;-79
2022/02/28 11:25:11;;;;;;;7.55;4.00;;;;;;;2.90;46.46;102154.33;2166757;81;21036;-78
2022/02/28 11:28:15;;;;;;;9.55;5.10;;;;;;;2.99;44.27;102150.02;2163669;81;21060;-80
2022/02/28 11:31:18;;;;;;;8.80;4.37;;;;;;;3.07;44.94;102148.34;2164322;81;21048;-78
2022/02/28 11:34:23;;;;;;;8.65;4.75;;;;;;;3.05;44.05;102135.31;2186751;79;21035;-79
2022/02/28 11:37:26;;;;;;;9.33;5.47;;;;;;;2.94;44.40;102157.70;2191131;79;21398;-78
2022/02/28 11:40:33;;;;;;;10.03;5.83;;;;;;;2.93;45.56;102148.98;2195338;79;21051;-77
2022/02/28 11:43:53;;;;;;;10.13;5.22;;;;;;;2.97;45.56;102144.45;2188103;79;21037;-78
2022/02/28 11:47:02;;;;;;;8.83;5.40;;;;;;;3.00;44.90;102146.92;2162355;79;21567;-78
2022/02/28 11:50:18;;;;;;;9.90;5.45;;;;;;;2.78;45.03;102147.02;2191550;79;21036;-78
2022/02/28 11:53:45;;;;;;;12.10;5.67;;;;;;;2.91;46.15;102151.66;2191041;79;21064;-82
2022/02/28 11:56:49;;;;;;;11.90;6.45;;;;;;;2.91;46.12;102143.79;2189215;79;21106;-83
2022/02/28 11:59:52;;;;;;;11.57;6.50;;;;;;;3.05;46.02;102140.55;2192714;79;21072;-77
2022/02/28 12:02:54;;;;;;;11.88;6.80;;;;;;;3.06;46.01;102156.67;2196950;79;21008;-78
2022/02/28 12:05:55;;;;;;;10.78;5.78;;;;;;;3.01;45.57;102140.28;2191408;79;21044;-79
2022/02/28 12:08:58;;;;;;;11.40;6.40;;;;;;;2.87;45.39;102143.98;2196235;79;21032;-79
2022/02/28 12:12:25;;;;;;;11.12;5.80;;;;;;;2.88;45.98;102148.33;2196087;79;21038;-78
2022/02/28 12:15:27;;;;;;;10.20;6.28;;;;;;;2.78;46.11;102145.23;2188651;79;21028;-79
2022/02/28 12:18:29;;;;;;;13.15;6.00;;;;;;;2.92;46.43;102144.17;2190018;79;21512;-79
2022/02/28 12:21:38;;;;;;;13.20;6.10;;;;;;;2.87;45.76;102140.05;2181093;79;21044;-79
2022/02/28 12:25:04;;;;;;;9.55;5.85;;;;;;;3.00;45.71;102153.02;2165158;81;21056;-82
2022/02/28 12:28:29;;;;;;;10.20;5.72;;;;;;;3.01;45.88;102152.09;2156955;81;21556;-79
2022/02/28 12:31:36;;;;;;;8.25;4.92;;;;;;;3.02;46.33;102151.66;2182368;79;21044;-78
2022/02/28 12:34:38;;;;;;;10.95;6.03;;;;;;;2.95;45.46;102152.83;2179381;79;21053;-79
2022/02/28 12:37:41;;;;;;;14.60;5.62;;;;;;;2.84;46.37;102158.54;2149344;80;21009;-80
2022/02/28 12:40:53;;;;;;;11.65;6.15;;;;;;;2.75;45.48;102158.48;2155295;81;21062;-80
2022/02/28 12:44:00;;;;;;;10.38;5.08;;;;;;;2.68;45.44;102163.61;2129193;81;21820;-78
2022/02/28 12:47:02;;;;;;;8.40;5.37;;;;;;;2.68;44.21;102154.44;2178159;79;21056;-83
2022/02/28 12:50:09;;;;;;;9.38;5.35;;;;;;;2.55;44.84;102168.52;2151559;81;21085;-79
2022/02/28 12:53:14;;;;;;;10.82;5.10;;;;;;;2.60;45.49;102156.07;2157136;80;21070;-80
2022/02/28 12:56:21;;;;;;;10.35;5.65;;;;;;;2.61;44.48;102149.90;2158830;80;21084;-78
2022/02/28 12:59:46;;;;;;;8.38;5.40;;;;;;;2.39;44.50;102156.97;2209078;79;21507;-79
2022/02/28 13:03:03;;;;;;;9.85;5.50;;;;;;;2.40;44.92;102158.69;2212187;79;21065;-83
2022/02/28 13:06:06;;;;;;;9.75;4.70;;;;;;;2.38;44.34;102167.91;2210593;79;20997;-79
2022/02/28 13:09:16;;;;;;;8.05;5.15;;;;;;;2.28;43.83;102163.98;2172210;80;21028;-79
2022/02/28 13:12:30;;;;;;;9.50;5.80;;;;;;;2.30;44.31;102159.52;2188462;79;21005;-79
2022/02/28 13:15:32;;;;;;;9.45;5.05;;;;;;;2.33;44.34;102166.40;2208585;79;21001;-79
2022/02/28 13:18:34;;;;;;;9.08;5.15;;;;;;;2.32;44.95;102162.09;2170242;80;21073;-80
2022/02/28 13:21:40;;;;;;;9.68;5.85;;;;;;;2.26;43.80;102164.97;2172788;80;21564;-81
2022/02/28 13:24:42;;;;;;;9.60;5.37;;;;;;;2.16;44.51;102165.78;2138803;80;21041;-79
2022/02/28 13:27:44;;;;;;;10.05;4.83;;;;;;;2.22;45.26;102166.41;2182040;79;21583;-79
2022/02/28 13:30:48;;;;;;;8.58;5.17;;;;;;;2.27;45.33;102167.50;2171201;80;21032;-79
2022/02/28 13:33:50;;;;;;;8.38;4.95;;;;;;;2.15;45.48;102176.72;2164807;81;21054;-82
2022/02/28 13:36:57;;;;;;;9.08;5.67;;;;;;;1.98;44.38;102168.70;2108118;81;21038;-78
2022/02/28 13:40:00;;;;;;;7.10;5.10;;;;;;;1.93;45.36;102178.50;2174358;80;21033;-78
2022/02/28 13:43:08;;;;;;;9.60;5.92;;;;;;;1.76;44.65;102173.46;2182660;79;21009;-78
2022/02/28 13:46:11;;;;;;;11.68;5.33;;;;;;;1.64;45.02;102170.48;2173510;81;21048;-79
2022/02/28 13:49:15;;;;;;;11.60;6.20;;;;;;;1.70;45.62;102169.78;2212939;79;21433;-79
2022/02/28 13:52:20;;;;;;;10.65;5.72;;;;;;;1.82;45.97;102174.14;2214198;79;21611;-79
2022/02/28 13:55:22;;;;;;;10.93;5.12;;;;;;;1.87;45.63;102174.81;2213838;79;21055;-80
2022/02/28 13:58:30;;;;;;;8.78;5.17;;;;;;;1.91;45.58;102181.63;2183186;79;21084;-79
2022/02/28 14:01:32;;;;;;;10.05;5.28;;;;;;;1.91;45.34;102181.63;2188440;79;21025;-81
2022/02/28 14:04:42;;;;;;;9.23;5.15;;;;;;;1.97;46.64;102178.76;2172382;80;21346;-80
2022/02/28 14:08:03;;;;;;;10.08;5.20;;;;;;;1.95;45.99;102178.83;2182827;79;21072;-78
2022/02/28 14:11:08;;;;;;;5.78;4.10;;;;;;;1.72;45.80;102169.27;2217629;79;21116;-79